LFQA 221500Z AUTO 25007KT 200V290 9999 BKN029 OVC045 12/06 Q1026

ElémentsDécodage
LFQA Station météo située sur l'aérodrome de REIMS Prunay
221500Z émis le 22 du mois à 15h00 UTC
AUTO Bulletin édité par un automate
25007KT vent du 250°, 07 noeuds
200V290 vent de direction variable entre 200° et 290°
9999 visibilité horizontale supérieure à 10 Km
BKN029 nuages morcelés (5/8 à 7/8) à 2900 pieds
OVC045 couverture nuageuse totale (8/8) à 4500 pieds
12/06 température 12°C, point de rosée 06°C
 soit une humidité relative de 67%
Q1026 la pression au niveau de la mer (QNH) est de 1026 hPa